createdAt,value
2019-01-15T00:00:02.046Z,1.65
2019-01-15T00:01:02.038Z,1.55
2019-01-15T00:02:02.049Z,1.60
2019-01-15T00:03:02.014Z,1.63
2019-01-15T00:04:02.007Z,1.62
2019-01-15T00:05:02.030Z,1.63
2019-01-15T00:06:01.976Z,1.58
2019-01-15T00:07:01.987Z,1.63
2019-01-15T00:08:01.961Z,1.60
2019-01-15T00:09:01.954Z,1.60
2019-01-15T00:10:01.949Z,1.62
2019-01-15T00:11:01.922Z,1.73
2019-01-15T00:12:07.818Z,1.65
2019-01-15T00:13:02.903Z,1.65
2019-01-15T00:14:01.889Z,1.70
2019-01-15T00:15:01.880Z,1.79
2019-01-15T00:16:01.866Z,1.70
2019-01-15T00:17:01.871Z,1.79
2019-01-15T00:18:01.856Z,1.81
2019-01-15T00:19:01.858Z,1.79
2019-01-15T00:20:01.831Z,1.84
2019-01-15T00:21:01.824Z,1.86
2019-01-15T00:22:01.887Z,1.79
2019-01-15T00:23:01.792Z,1.83
2019-01-15T00:24:01.778Z,1.83
2019-01-15T00:25:01.769Z,1.90
2019-01-15T00:26:01.758Z,1.95
2019-01-15T00:27:02.678Z,2.00
2019-01-15T00:28:01.735Z,1.93
2019-01-15T00:29:01.727Z,1.98
2019-01-15T00:30:01.721Z,1.98
2019-01-15T00:31:01.708Z,1.99
2019-01-15T00:32:01.753Z,1.99
2019-01-15T00:33:01.746Z,2.00
2019-01-15T00:34:01.670Z,1.95
2019-01-15T00:35:01.667Z,2.05
2019-01-15T00:36:01.650Z,2.03
2019-01-15T00:37:01.668Z,2.06
2019-01-15T00:38:01.629Z,2.12
2019-01-15T00:39:01.646Z,2.10
2019-01-15T00:40:01.604Z,2.09
2019-01-15T00:41:01.589Z,2.09
2019-01-15T00:42:01.588Z,2.16
2019-01-15T00:43:01.583Z,2.10
2019-01-15T00:44:01.566Z,2.14
2019-01-15T00:45:01.548Z,2.14
2019-01-15T00:46:01.532Z,2.18
2019-01-15T00:47:01.525Z,2.20
2019-01-15T00:48:01.533Z,2.18
2019-01-15T00:49:01.550Z,2.23
2019-01-15T00:50:01.504Z,2.24
2019-01-15T00:51:01.476Z,2.12
2019-01-15T00:52:01.472Z,2.10
2019-01-15T00:53:01.474Z,2.23
2019-01-15T00:54:01.442Z,2.24
2019-01-15T00:55:01.440Z,2.18
2019-01-15T00:56:01.418Z,2.14
2019-01-15T00:57:01.411Z,2.10
2019-01-15T00:58:01.416Z,2.16
2019-01-15T00:59:01.394Z,2.16
2019-01-15T01:00:01.385Z,2.12
2019-01-15T01:01:01.375Z,2.16
2019-01-15T01:02:01.352Z,2.16
2019-01-15T01:03:01.363Z,2.18
2019-01-15T01:04:01.330Z,2.25
2019-01-15T01:05:01.323Z,2.25
2019-01-15T01:06:01.310Z,2.27
2019-01-15T01:07:01.303Z,2.06
2019-01-15T01:08:01.319Z,2.23
2019-01-15T01:09:01.274Z,2.24
2019-01-15T01:10:01.267Z,2.20
2019-01-15T01:11:01.266Z,2.18
2019-01-15T01:12:01.273Z,2.14
2019-01-15T01:13:01.260Z,2.10
2019-01-15T01:14:01.230Z,2.23
2019-01-15T01:15:01.216Z,2.17
2019-01-15T01:16:01.204Z,2.24
2019-01-15T01:17:01.190Z,2.18
2019-01-15T01:18:01.208Z,2.20
2019-01-15T01:19:01.169Z,2.17
2019-01-15T01:20:01.160Z,2.23
2019-01-15T01:21:01.148Z,2.14
2019-01-15T01:22:01.150Z,2.28
2019-01-15T01:23:01.176Z,2.10
2019-01-15T01:24:01.117Z,2.20
2019-01-15T01:25:01.098Z,2.16
2019-01-15T01:26:01.107Z,2.21
2019-01-15T01:27:01.079Z,2.25
2019-01-15T01:28:01.066Z,2.18
2019-01-15T01:29:01.074Z,2.14
2019-01-15T01:30:01.046Z,2.25
2019-01-15T01:31:01.036Z,2.24
2019-01-15T01:32:01.049Z,2.25
2019-01-15T01:33:01.012Z,2.18
2019-01-15T01:34:01.016Z,2.27
2019-01-15T01:35:01.002Z,2.25
2019-01-15T01:36:00.980Z,2.18
2019-01-15T01:37:00.966Z,2.24
2019-01-15T01:38:00.963Z,2.17
2019-01-15T01:39:00.975Z,2.20
2019-01-15T01:40:00.961Z,2.20
2019-01-15T01:41:00.924Z,2.12
2019-01-15T01:42:00.909Z,2.23
2019-01-15T01:43:00.902Z,2.31
2019-01-15T01:44:00.902Z,2.18
2019-01-15T01:45:00.878Z,2.25
2019-01-15T01:46:00.874Z,2.21
2019-01-15T01:47:00.869Z,2.31
2019-01-15T01:48:00.842Z,2.30
2019-01-15T01:49:00.857Z,2.36
2019-01-15T01:50:00.830Z,2.35
2019-01-15T01:51:00.808Z,2.46
2019-01-15T01:52:00.808Z,2.41
2019-01-15T01:53:00.827Z,2.31
2019-01-15T01:54:00.822Z,2.30
2019-01-15T01:55:00.843Z,2.28
2019-01-15T01:56:00.762Z,2.42
2019-01-15T01:57:00.747Z,2.36
2019-01-15T01:58:00.738Z,2.43
2019-01-15T01:59:00.739Z,2.42
2019-01-15T02:00:00.712Z,2.36
2019-01-15T02:01:00.700Z,2.43
2019-01-15T02:02:00.716Z,2.27
2019-01-15T02:03:00.675Z,2.24
2019-01-15T02:04:00.698Z,2.34
2019-01-15T02:05:00.652Z,2.17
2019-01-15T02:06:00.650Z,2.27
2019-01-15T02:07:00.629Z,2.28
2019-01-15T02:08:00.626Z,2.35
2019-01-15T02:09:00.627Z,2.31
2019-01-15T02:10:00.603Z,2.35
2019-01-15T02:11:00.594Z,2.36
2019-01-15T02:12:00.574Z,2.34
2019-01-15T02:13:00.569Z,2.35
2019-01-15T02:14:00.583Z,2.41
2019-01-15T02:15:00.549Z,2.41
2019-01-15T02:16:00.530Z,2.27
2019-01-15T02:17:00.521Z,2.30
2019-01-15T02:18:00.509Z,2.36
2019-01-15T02:19:00.531Z,2.28
2019-01-15T02:20:00.493Z,2.30
2019-01-15T02:21:00.484Z,2.31
2019-01-15T02:22:00.464Z,2.34
2019-01-15T02:23:00.455Z,2.31
2019-01-15T02:24:00.448Z,2.34
2019-01-15T02:25:00.714Z,2.27
2019-01-15T02:26:00.425Z,2.41
2019-01-15T02:27:00.424Z,2.28
2019-01-15T02:28:00.391Z,2.31
2019-01-15T02:29:00.387Z,2.45
2019-01-15T02:30:00.401Z,2.42
2019-01-15T02:31:00.364Z,2.42
2019-01-15T02:32:00.361Z,2.46
2019-01-15T02:33:00.355Z,2.49
2019-01-15T02:34:00.337Z,2.42
2019-01-15T02:35:00.339Z,2.46
2019-01-15T02:36:00.314Z,2.49
2019-01-15T02:37:00.293Z,2.41
2019-01-15T02:38:00.293Z,2.45
2019-01-15T02:39:00.301Z,2.57
2019-01-15T02:40:00.338Z,2.56
2019-01-15T02:41:00.257Z,2.61
2019-01-15T02:42:00.255Z,2.66
2019-01-15T02:43:00.241Z,2.67
2019-01-15T02:44:00.229Z,2.71
2019-01-15T02:45:00.253Z,2.63
2019-01-15T02:46:00.198Z,2.64
2019-01-15T02:47:00.195Z,2.61
2019-01-15T02:48:00.173Z,2.63
2019-01-15T02:49:00.170Z,2.67
2019-01-15T02:50:00.208Z,2.64
2019-01-15T02:51:00.156Z,2.72
2019-01-15T02:52:00.130Z,2.66
2019-01-15T02:53:00.121Z,2.61
2019-01-15T02:54:00.109Z,2.64
2019-01-15T02:55:00.217Z,2.67
2019-01-15T02:56:00.090Z,2.64
2019-01-15T02:57:00.075Z,2.63
2019-01-15T02:58:00.075Z,2.66
2019-01-15T02:59:00.077Z,2.67
2019-01-15T03:00:00.247Z,2.61
2019-01-15T03:01:00.034Z,2.63
2019-01-15T03:02:00.020Z,2.60
2019-01-15T03:03:00.010Z,2.66
2019-01-15T03:03:59.995Z,2.72
2019-01-15T03:05:00.016Z,2.63
2019-01-15T03:05:59.972Z,2.61
2019-01-15T03:06:59.980Z,2.63
2019-01-15T03:07:59.968Z,2.52
2019-01-15T03:08:59.938Z,2.53
2019-01-15T03:09:59.946Z,2.57
2019-01-15T03:10:59.914Z,2.56
2019-01-15T03:11:59.915Z,2.49
2019-01-15T03:12:59.916Z,2.48
2019-01-15T03:13:59.885Z,2.48
2019-01-15T03:14:59.888Z,2.46
2019-01-15T03:15:59.870Z,2.42
2019-01-15T03:16:59.851Z,2.46
2019-01-15T03:17:59.847Z,2.39
2019-01-15T03:18:59.865Z,2.31
2019-01-15T03:19:59.860Z,2.42
2019-01-15T03:20:59.807Z,2.42
2019-01-15T03:21:59.816Z,2.31
2019-01-15T03:22:59.787Z,2.31
2019-01-15T03:23:59.786Z,2.30
2019-01-15T03:24:59.797Z,2.25
2019-01-15T03:25:59.773Z,2.28
2019-01-15T03:26:59.743Z,2.23
2019-01-15T03:27:59.778Z,2.18
2019-01-15T03:28:59.726Z,2.21
2019-01-15T03:29:59.723Z,2.17
2019-01-15T03:30:59.735Z,2.23
2019-01-15T03:31:59.687Z,2.20
2019-01-15T03:32:59.677Z,2.20
2019-01-15T03:33:59.666Z,2.18
2019-01-15T03:34:59.663Z,2.16
2019-01-15T03:35:59.669Z,2.12
2019-01-15T03:36:59.628Z,2.06
2019-01-15T03:37:59.618Z,2.14
2019-01-15T03:38:59.608Z,2.16
2019-01-15T03:39:59.595Z,2.10
2019-01-15T03:40:59.605Z,2.14
2019-01-15T03:41:59.571Z,2.14
2019-01-15T03:43:03.776Z,2.02
2019-01-15T03:43:59.553Z,2.03
2019-01-15T03:44:59.549Z,2.03
2019-01-15T03:46:04.138Z,2.05
2019-01-15T03:47:00.520Z,2.00
2019-01-15T03:47:59.506Z,2.07
2019-01-15T03:48:59.500Z,2.09
2019-01-15T03:49:59.493Z,1.99
2019-01-15T03:50:59.495Z,2.06
2019-01-15T03:51:59.478Z,2.12
2019-01-15T03:52:59.459Z,2.06
2019-01-15T03:53:59.444Z,2.07
2019-01-15T03:54:59.435Z,2.14
2019-01-15T03:55:59.462Z,2.07
2019-01-15T03:56:59.407Z,2.12
2019-01-15T03:57:59.400Z,2.09
2019-01-15T03:58:59.451Z,2.10
2019-01-15T03:59:59.377Z,2.16
2019-01-15T04:00:59.386Z,2.14
2019-01-15T04:01:59.359Z,2.14
2019-01-15T04:02:59.347Z,2.27
2019-01-15T04:03:59.340Z,2.25
2019-01-15T04:04:59.320Z,2.20
2019-01-15T04:05:59.333Z,2.28
2019-01-15T04:06:59.303Z,2.24
2019-01-15T04:07:59.295Z,2.31
2019-01-15T04:08:59.281Z,2.20
2019-01-15T04:09:59.279Z,2.23
2019-01-15T04:10:59.275Z,2.34
2019-01-15T04:11:59.244Z,2.28
2019-01-15T04:12:59.231Z,2.35
2019-01-15T04:13:59.223Z,2.34
2019-01-15T04:14:59.214Z,2.30
2019-01-15T04:15:59.243Z,2.38
2019-01-15T04:16:59.191Z,2.38
2019-01-15T04:17:59.178Z,2.39
2019-01-15T04:18:59.169Z,2.43
2019-01-15T04:19:59.155Z,2.43
2019-01-15T04:20:59.149Z,2.45
2019-01-15T04:21:59.155Z,2.45
2019-01-15T04:22:59.126Z,2.41
2019-01-15T04:23:59.112Z,2.42
2019-01-15T04:24:59.098Z,2.41
2019-01-15T04:25:59.089Z,2.43
2019-01-15T04:26:59.095Z,2.48
2019-01-15T04:27:59.074Z,2.42
2019-01-15T04:28:59.063Z,2.28
2019-01-15T04:29:59.046Z,2.41
2019-01-15T04:30:59.043Z,2.28
2019-01-15T04:31:59.047Z,2.28
2019-01-15T04:32:59.018Z,2.39
2019-01-15T04:33:58.996Z,2.27
2019-01-15T04:34:58.990Z,2.24
2019-01-15T04:35:58.978Z,2.28
2019-01-15T04:36:58.989Z,2.30
2019-01-15T04:37:58.963Z,2.28
2019-01-15T04:38:58.942Z,2.30
2019-01-15T04:39:58.934Z,2.38
2019-01-15T04:40:58.921Z,2.38
2019-01-15T04:41:58.935Z,2.41
2019-01-15T04:42:58.902Z,2.42
2019-01-15T04:43:58.902Z,2.49
2019-01-15T04:44:58.875Z,2.46
2019-01-15T04:45:58.870Z,2.45
2019-01-15T04:46:58.873Z,2.49
2019-01-15T04:47:58.851Z,2.45
2019-01-15T04:48:58.830Z,2.54
2019-01-15T04:49:58.821Z,2.57
2019-01-15T04:50:58.817Z,2.56
2019-01-15T04:51:58.831Z,2.54
2019-01-15T04:52:58.793Z,2.61
2019-01-15T04:53:58.781Z,2.61
2019-01-15T04:54:58.763Z,2.66
2019-01-15T04:55:58.757Z,2.67
2019-01-15T04:56:58.740Z,2.66
2019-01-15T04:57:58.750Z,2.64
2019-01-15T04:58:58.719Z,2.74
2019-01-15T04:59:58.710Z,2.74
2019-01-15T05:00:58.697Z,2.66
2019-01-15T05:01:58.690Z,2.71
2019-01-15T05:02:58.694Z,2.75
2019-01-15T05:03:58.666Z,2.74
2019-01-15T05:04:58.664Z,2.74
2019-01-15T05:05:58.645Z,2.71
2019-01-15T05:06:58.636Z,2.59
2019-01-15T05:07:58.643Z,2.69
2019-01-15T05:08:58.613Z,2.66
2019-01-15T05:09:58.601Z,2.75
2019-01-15T05:10:58.590Z,2.81
2019-01-15T05:11:58.580Z,2.72
2019-01-15T05:12:58.591Z,2.74
2019-01-15T05:13:58.555Z,2.75
2019-01-15T05:14:58.554Z,2.81
2019-01-15T05:15:58.534Z,2.82
2019-01-15T05:16:58.541Z,2.81
2019-01-15T05:17:58.532Z,2.82
2019-01-15T05:18:58.515Z,2.82
2019-01-15T05:19:58.488Z,2.84
2019-01-15T05:20:58.477Z,2.82
2019-01-15T05:21:58.465Z,2.82
2019-01-15T05:22:58.473Z,2.85
2019-01-15T05:23:58.456Z,2.79
2019-01-15T05:24:58.433Z,2.81
2019-01-15T05:25:58.426Z,2.90
2019-01-15T05:26:58.416Z,2.92
2019-01-15T05:27:58.425Z,2.92
2019-01-15T05:28:58.394Z,2.89
2019-01-15T05:29:58.388Z,2.96
2019-01-15T05:30:58.374Z,2.89
2019-01-15T05:31:58.362Z,2.90
2019-01-15T05:32:58.380Z,3.05
2019-01-15T05:33:58.332Z,2.99
2019-01-15T05:34:58.328Z,3.10
2019-01-15T05:35:58.315Z,2.97
2019-01-15T05:36:58.300Z,2.99
2019-01-15T05:37:58.291Z,3.00
2019-01-15T05:38:58.735Z,3.00
2019-01-15T05:39:58.273Z,2.97
2019-01-15T05:40:58.258Z,2.97
2019-01-15T05:41:58.245Z,2.96
2019-01-15T05:42:58.240Z,2.97
2019-01-15T05:43:58.252Z,3.02
2019-01-15T05:44:58.209Z,2.99
2019-01-15T05:45:58.203Z,3.02
2019-01-15T05:46:58.203Z,3.00
2019-01-15T05:47:58.175Z,3.15
2019-01-15T05:48:58.187Z,3.06
2019-01-15T05:49:58.159Z,3.11
2019-01-15T05:50:58.153Z,3.18
2019-01-15T05:51:58.139Z,3.18
2019-01-15T05:52:58.135Z,3.21
2019-01-15T05:53:58.143Z,3.21
2019-01-15T05:54:58.101Z,3.24
2019-01-15T05:55:58.097Z,3.23
2019-01-15T05:56:58.075Z,3.23
2019-01-15T05:57:58.071Z,3.18
2019-01-15T05:58:58.077Z,3.23
2019-01-15T05:59:58.047Z,3.20
2019-01-15T06:00:58.045Z,3.26
2019-01-15T06:01:58.020Z,3.20
2019-01-15T06:02:58.034Z,3.28
2019-01-15T06:03:58.018Z,3.24
2019-01-15T06:04:57.991Z,3.28
2019-01-15T06:05:57.987Z,3.23
2019-01-15T06:06:57.972Z,3.26
2019-01-15T06:07:57.957Z,3.36
2019-01-15T06:08:57.961Z,3.35
2019-01-15T06:09:57.934Z,3.28
2019-01-15T06:10:57.920Z,3.28
2019-01-15T06:11:57.917Z,3.28
2019-01-15T06:12:57.902Z,3.31
2019-01-15T06:13:57.912Z,3.29
2019-01-15T06:14:57.881Z,3.29
2019-01-15T06:15:57.876Z,3.28
2019-01-15T06:16:57.858Z,3.28
2019-01-15T06:17:57.852Z,3.32
2019-01-15T06:18:57.865Z,3.36
2019-01-15T06:19:57.828Z,3.29
2019-01-15T06:20:57.816Z,3.29
2019-01-15T06:21:57.800Z,3.35
2019-01-15T06:22:57.792Z,3.35
2019-01-15T06:23:57.786Z,3.26
2019-01-15T06:24:57.796Z,3.33
2019-01-15T06:25:57.756Z,3.39
2019-01-15T06:26:57.760Z,3.31
2019-01-15T06:27:57.736Z,3.32
2019-01-15T06:28:57.721Z,3.33
2019-01-15T06:29:57.762Z,3.40
2019-01-15T06:30:57.704Z,3.32
2019-01-15T06:31:57.688Z,3.35
2019-01-15T06:32:57.686Z,3.42
2019-01-15T06:33:57.686Z,3.39
2019-01-15T06:34:57.674Z,3.39
2019-01-15T06:35:57.656Z,3.47
2019-01-15T06:36:57.694Z,3.39
2019-01-15T06:37:57.626Z,3.47
2019-01-15T06:38:57.620Z,3.47
2019-01-15T06:39:57.630Z,3.57
2019-01-15T06:40:57.592Z,3.51
2019-01-15T06:41:57.574Z,3.47
2019-01-15T06:42:57.567Z,3.51
2019-01-15T06:43:57.566Z,3.48
2019-01-15T06:44:57.572Z,3.47
2019-01-15T06:45:57.532Z,3.45
2019-01-15T06:46:57.523Z,3.45
2019-01-15T06:47:57.508Z,3.47
2019-01-15T06:48:57.502Z,3.48
2019-01-15T06:49:57.519Z,3.50
2019-01-15T06:50:57.478Z,3.50
2019-01-15T06:51:57.471Z,3.45
2019-01-15T06:52:57.460Z,3.45
2019-01-15T06:53:57.452Z,3.50
2019-01-15T06:54:57.473Z,3.40
2019-01-15T06:55:57.433Z,3.52
2019-01-15T06:56:57.412Z,3.39
2019-01-15T06:57:57.403Z,3.45
2019-01-15T06:58:57.404Z,3.45
2019-01-15T06:59:57.405Z,3.32
2019-01-15T07:00:57.380Z,3.39
2019-01-15T07:01:57.368Z,3.52
2019-01-15T07:02:57.347Z,3.57
2019-01-15T07:03:57.335Z,3.47
2019-01-15T07:04:57.354Z,3.48
2019-01-15T07:05:57.314Z,3.45
2019-01-15T07:06:57.308Z,3.48
2019-01-15T07:07:57.291Z,3.47
2019-01-15T07:08:57.283Z,3.55
2019-01-15T07:09:57.315Z,3.54
2019-01-15T07:10:57.259Z,3.50
2019-01-15T07:11:57.245Z,3.40
2019-01-15T07:12:57.246Z,3.54
2019-01-15T07:13:57.335Z,3.42
2019-01-15T07:14:57.212Z,3.47
2019-01-15T07:15:57.224Z,3.47
2019-01-15T07:16:57.206Z,3.50
2019-01-15T07:17:57.176Z,3.52
2019-01-15T07:18:57.174Z,3.50
2019-01-15T07:19:57.156Z,3.45
2019-01-15T07:20:57.454Z,3.51
2019-01-15T07:21:57.138Z,3.47
2019-01-15T07:22:57.120Z,3.60
2019-01-15T07:23:57.120Z,3.52
2019-01-15T07:24:57.108Z,3.47
2019-01-15T07:25:57.109Z,3.54
2019-01-15T07:26:57.082Z,3.52
2019-01-15T07:27:57.075Z,3.58
2019-01-15T07:28:57.058Z,3.57
2019-01-15T07:29:57.052Z,3.43
2019-01-15T07:30:57.066Z,3.48
2019-01-15T07:31:57.024Z,3.48
2019-01-15T07:32:57.017Z,3.52
2019-01-15T07:33:57.009Z,3.57
2019-01-15T07:34:56.991Z,3.48
2019-01-15T07:35:56.995Z,3.48
2019-01-15T07:36:56.975Z,3.58
2019-01-15T07:37:56.969Z,3.48
2019-01-15T07:38:56.951Z,3.55
2019-01-15T07:39:56.934Z,3.57
2019-01-15T07:40:56.946Z,3.57
2019-01-15T07:41:56.914Z,3.51
2019-01-15T07:42:56.901Z,3.60
2019-01-15T07:44:04.165Z,3.60
2019-01-15T07:44:57.880Z,3.57
2019-01-15T07:45:56.866Z,3.58
2019-01-15T07:46:56.882Z,3.61
2019-01-15T07:47:56.844Z,3.48
2019-01-15T07:48:56.835Z,3.60
2019-01-15T07:49:56.824Z,3.58
2019-01-15T07:50:56.818Z,3.51
2019-01-15T07:51:56.818Z,3.54
2019-01-15T07:52:56.794Z,3.57
2019-01-15T07:53:56.779Z,3.57
2019-01-15T07:54:56.768Z,3.54
2019-01-15T07:55:56.759Z,3.55
2019-01-15T07:56:56.770Z,3.58
2019-01-15T07:57:57.795Z,3.57
2019-01-15T07:58:56.729Z,3.58
2019-01-15T07:59:56.713Z,3.52
2019-01-15T08:00:56.699Z,3.58
2019-01-15T08:01:56.714Z,3.54
2019-01-15T08:02:56.679Z,3.61
2019-01-15T08:03:56.671Z,3.62
2019-01-15T08:04:56.664Z,3.58
2019-01-15T08:05:56.653Z,3.65
2019-01-15T08:06:56.657Z,3.65
2019-01-15T08:07:56.627Z,3.61
2019-01-15T08:08:56.610Z,3.61
2019-01-15T08:09:56.608Z,3.66
2019-01-15T08:10:57.179Z,3.65
2019-01-15T08:11:56.581Z,3.58
2019-01-15T08:12:56.586Z,3.58
2019-01-15T08:13:56.558Z,3.65
2019-01-15T08:14:56.546Z,3.54
2019-01-15T08:15:56.599Z,3.70
2019-01-15T08:16:56.543Z,3.52
2019-01-15T08:17:56.521Z,3.61
2019-01-15T08:18:56.500Z,3.58
2019-01-15T08:19:56.505Z,3.54
2019-01-15T08:20:56.488Z,3.65
2019-01-15T08:21:56.500Z,3.60
2019-01-15T08:22:56.462Z,3.58
2019-01-15T08:23:56.446Z,3.58
2019-01-15T08:24:56.435Z,3.54
2019-01-15T08:25:56.424Z,3.55
2019-01-15T08:26:56.448Z,3.45
2019-01-15T08:27:56.400Z,3.50
2019-01-15T08:28:56.405Z,3.40
2019-01-15T08:29:56.389Z,3.43
2019-01-15T08:30:56.371Z,3.36
2019-01-15T08:31:56.352Z,3.51
2019-01-15T08:32:56.367Z,3.50
2019-01-15T08:33:56.338Z,3.45
2019-01-15T08:34:56.326Z,3.47
2019-01-15T08:35:56.312Z,3.35
2019-01-15T08:36:56.310Z,3.50
2019-01-15T08:37:56.317Z,3.48
2019-01-15T08:38:56.286Z,3.51
2019-01-15T08:39:56.270Z,3.62
2019-01-15T08:40:56.260Z,3.60
2019-01-15T08:41:56.244Z,3.52
2019-01-15T08:42:56.252Z,3.57
2019-01-15T08:43:56.224Z,3.52
2019-01-15T08:44:56.217Z,3.52
2019-01-15T08:45:56.201Z,3.62
2019-01-15T08:46:56.191Z,3.54
2019-01-15T08:47:56.202Z,3.52
2019-01-15T08:48:56.196Z,3.54
2019-01-15T08:49:56.155Z,3.68
2019-01-15T08:50:56.144Z,3.61
2019-01-15T08:51:56.688Z,3.62
2019-01-15T08:52:56.147Z,3.55
2019-01-15T08:53:56.110Z,3.65
2019-01-15T08:54:56.100Z,3.66
2019-01-15T08:55:56.092Z,3.62
2019-01-15T08:56:56.080Z,3.62
2019-01-15T08:57:56.090Z,3.60
2019-01-15T08:58:56.056Z,3.65
2019-01-15T08:59:56.051Z,3.62
2019-01-15T09:00:56.031Z,3.66
2019-01-15T09:01:56.030Z,3.76
2019-01-15T09:02:56.037Z,3.66
2019-01-15T09:03:56.004Z,3.70
2019-01-15T09:04:55.991Z,3.72
2019-01-15T09:05:55.977Z,3.70
2019-01-15T09:06:55.971Z,3.62
2019-01-15T09:07:55.982Z,3.68
2019-01-15T09:08:55.972Z,3.57
2019-01-15T09:09:55.932Z,3.72
2019-01-15T09:10:55.921Z,3.61
2019-01-15T09:11:55.913Z,3.57
2019-01-15T09:12:55.900Z,3.54
2019-01-15T09:13:55.915Z,3.55
2019-01-15T09:14:56.817Z,3.50
2019-01-15T09:15:55.868Z,3.58
2019-01-15T09:16:55.856Z,3.60
2019-01-15T09:17:55.842Z,3.47
2019-01-15T09:18:55.852Z,3.48
2019-01-15T09:19:55.818Z,3.47
2019-01-15T09:20:55.819Z,3.47
2019-01-15T09:21:55.798Z,3.50
2019-01-15T09:22:55.790Z,3.40
2019-01-15T09:23:55.790Z,3.39
2019-01-15T09:24:55.776Z,3.39
2019-01-15T09:25:55.751Z,3.47
2019-01-15T09:26:55.746Z,3.40
2019-01-15T09:27:55.743Z,3.35
2019-01-15T09:28:55.735Z,3.29
2019-01-15T09:29:55.716Z,3.29
2019-01-15T09:30:55.701Z,3.31
2019-01-15T09:31:55.691Z,3.24
2019-01-15T09:32:55.680Z,3.31
2019-01-15T09:33:55.683Z,3.26
2019-01-15T09:34:55.655Z,3.35
2019-01-15T09:35:55.642Z,3.31
2019-01-15T09:36:55.650Z,3.40
2019-01-15T09:37:55.620Z,3.36
2019-01-15T09:38:55.624Z,3.32
2019-01-15T09:39:55.602Z,3.33
2019-01-15T09:40:55.590Z,3.39
2019-01-15T09:41:55.585Z,3.29
2019-01-15T09:42:55.560Z,3.28
2019-01-15T09:43:55.594Z,3.35
2019-01-15T09:44:55.542Z,3.33
2019-01-15T09:45:55.529Z,3.29
2019-01-15T09:46:55.556Z,3.26
2019-01-15T09:47:55.525Z,3.26
2019-01-15T09:48:55.512Z,3.31
2019-01-15T09:49:55.503Z,3.40
2019-01-15T09:50:55.473Z,3.54
2019-01-15T09:51:55.464Z,3.45
2019-01-15T09:52:55.466Z,3.55
2019-01-15T09:53:55.475Z,3.58
2019-01-15T09:54:55.432Z,3.61
2019-01-15T09:55:55.444Z,3.72
2019-01-15T09:56:55.411Z,3.62
2019-01-15T09:57:55.400Z,3.61
2019-01-15T09:58:55.398Z,3.68
2019-01-15T09:59:55.397Z,3.52
2019-01-15T10:00:55.370Z,3.50
2019-01-15T10:01:55.356Z,3.50
2019-01-15T10:02:55.340Z,3.54
2019-01-15T10:03:55.335Z,3.51
2019-01-15T10:04:55.339Z,3.54
2019-01-15T10:05:55.859Z,3.54
2019-01-15T10:06:55.314Z,3.52
2019-01-15T10:07:55.282Z,3.48
2019-01-15T10:08:55.270Z,3.52
2019-01-15T10:09:55.279Z,3.52
2019-01-15T10:10:55.255Z,3.60
2019-01-15T10:11:55.253Z,3.58
2019-01-15T10:12:55.230Z,3.62
2019-01-15T10:13:55.222Z,3.54
2019-01-15T10:14:55.255Z,3.60
2019-01-15T10:15:55.201Z,3.65
2019-01-15T10:16:55.196Z,3.75
2019-01-15T10:17:55.173Z,3.73
2019-01-15T10:18:55.159Z,3.75
2019-01-15T10:19:55.165Z,3.70
2019-01-15T10:20:55.142Z,3.66
2019-01-15T10:21:55.134Z,3.72
2019-01-15T10:22:55.120Z,3.61
2019-01-15T10:23:55.104Z,3.65
2019-01-15T10:24:55.161Z,3.69
2019-01-15T10:25:55.083Z,3.72
2019-01-15T10:26:55.070Z,3.65
2019-01-15T10:27:55.068Z,3.62
2019-01-15T10:28:55.048Z,3.69
2019-01-15T10:29:59.090Z,3.78
2019-01-15T10:30:55.027Z,3.79
2019-01-15T10:31:55.014Z,3.70
2019-01-15T10:32:55.007Z,3.76
2019-01-15T10:33:54.990Z,3.76
2019-01-15T10:34:55.019Z,3.87
2019-01-15T10:35:54.971Z,3.87
2019-01-15T10:36:54.957Z,3.91
2019-01-15T10:37:54.948Z,3.93
2019-01-15T10:38:54.944Z,3.90
2019-01-15T10:39:54.984Z,3.93
2019-01-15T10:40:54.934Z,3.87
2019-01-15T10:41:54.900Z,3.91
2019-01-15T10:42:54.950Z,3.96
2019-01-15T10:43:54.886Z,3.98
2019-01-15T10:44:54.886Z,3.93
2019-01-15T10:45:54.878Z,3.88
2019-01-15T10:46:54.854Z,3.94
2019-01-15T10:47:54.836Z,3.87
2019-01-15T10:48:54.832Z,3.91
2019-01-15T10:49:54.822Z,3.88
2019-01-15T10:50:54.826Z,3.93
2019-01-15T10:51:54.792Z,4.02
2019-01-15T10:52:54.785Z,4.00
2019-01-15T10:53:54.778Z,4.05
2019-01-15T10:54:54.759Z,4.02
2019-01-15T10:55:54.763Z,4.16
2019-01-15T10:56:54.737Z,4.12
2019-01-15T10:57:54.724Z,4.18
2019-01-15T10:58:54.718Z,4.23
2019-01-15T10:59:54.705Z,4.22
2019-01-15T11:00:54.768Z,4.18
2019-01-15T11:01:54.692Z,4.18
2019-01-15T11:02:54.669Z,4.11
2019-01-15T11:03:54.662Z,4.09
2019-01-15T11:04:54.645Z,4.20
2019-01-15T11:05:54.774Z,4.32
2019-01-15T11:06:54.638Z,4.36
2019-01-15T11:07:54.614Z,4.30
2019-01-15T11:08:54.602Z,4.29
2019-01-15T11:09:54.595Z,4.44
2019-01-15T11:10:54.598Z,4.42
2019-01-15T11:11:54.565Z,4.36
2019-01-15T11:12:54.566Z,4.36
2019-01-15T11:13:54.549Z,4.41
2019-01-15T11:14:56.229Z,4.36
2019-01-15T11:15:54.540Z,4.41
2019-01-15T11:16:54.507Z,4.41
2019-01-15T11:17:54.503Z,4.44
2019-01-15T11:18:54.501Z,4.47
2019-01-15T11:19:54.478Z,4.50
2019-01-15T11:20:54.490Z,4.42
2019-01-15T11:21:54.473Z,4.37
2019-01-15T11:22:54.444Z,4.37
2019-01-15T11:23:54.439Z,4.37
2019-01-15T11:24:54.434Z,4.36
2019-01-15T11:25:54.413Z,4.45
2019-01-15T11:26:54.428Z,4.40
2019-01-15T11:27:54.389Z,4.34
2019-01-15T11:28:54.380Z,4.37
2019-01-15T11:29:54.381Z,4.37
2019-01-15T11:30:54.354Z,4.36
2019-01-15T11:31:54.363Z,4.41
2019-01-15T11:32:54.335Z,4.44
2019-01-15T11:33:54.331Z,4.44
2019-01-15T11:34:54.317Z,4.40
2019-01-15T11:35:54.320Z,4.37
2019-01-15T11:36:54.323Z,4.40
2019-01-15T11:37:54.280Z,4.40
2019-01-15T11:38:54.282Z,4.36
2019-01-15T11:39:54.260Z,4.40
2019-01-15T11:40:54.247Z,4.36
2019-01-15T11:41:54.261Z,4.44
2019-01-15T11:42:54.226Z,4.50
2019-01-15T11:43:54.213Z,4.41
2019-01-15T11:44:54.201Z,4.42
2019-01-15T11:45:54.190Z,4.33
2019-01-15T11:46:54.199Z,4.33
2019-01-15T11:47:54.171Z,4.23
2019-01-15T11:48:54.164Z,4.29
2019-01-15T11:49:54.151Z,4.22
2019-01-15T11:50:54.134Z,4.26
2019-01-15T11:51:54.165Z,4.26
2019-01-15T11:52:54.120Z,4.22
2019-01-15T11:53:54.104Z,4.12
2019-01-15T11:54:54.096Z,4.14
2019-01-15T11:55:54.076Z,4.14
2019-01-15T11:56:54.098Z,4.09
2019-01-15T11:57:54.056Z,4.14
2019-01-15T11:58:54.052Z,4.15
2019-01-15T11:59:54.037Z,4.15
2019-01-15T12:00:54.029Z,4.18
2019-01-15T12:01:54.039Z,4.14
2019-01-15T12:02:54.016Z,4.05
2019-01-15T12:03:53.990Z,4.12
2019-01-15T12:04:53.978Z,4.12
2019-01-15T12:05:53.968Z,4.16
2019-01-15T12:06:53.955Z,4.16
2019-01-15T12:07:53.961Z,4.12
2019-01-15T12:08:53.933Z,4.18
2019-01-15T12:09:53.927Z,4.18
2019-01-15T12:10:53.914Z,4.16
2019-01-15T12:11:53.906Z,4.20
2019-01-15T12:12:53.906Z,4.24
2019-01-15T12:13:53.878Z,4.16
2019-01-15T12:14:53.870Z,4.22
2019-01-15T12:15:53.855Z,4.24
2019-01-15T12:16:53.843Z,4.33
2019-01-15T12:17:53.857Z,4.32
2019-01-15T12:18:53.820Z,4.32
2019-01-15T12:19:53.810Z,4.24
2019-01-15T12:20:53.803Z,4.32
2019-01-15T12:21:53.791Z,4.40
2019-01-15T12:22:53.797Z,4.45
2019-01-15T12:23:53.767Z,4.37
2019-01-15T12:24:53.761Z,4.40
2019-01-15T12:25:53.742Z,4.45
2019-01-15T12:26:53.736Z,4.42
2019-01-15T12:27:53.738Z,4.51
2019-01-15T12:28:53.763Z,4.48
2019-01-15T12:29:53.704Z,4.54
2019-01-15T12:30:53.688Z,4.51
2019-01-15T12:31:53.685Z,4.54
2019-01-15T12:32:53.700Z,4.58
2019-01-15T12:33:53.672Z,4.52
2019-01-15T12:34:53.644Z,4.54
2019-01-15T12:35:53.637Z,4.63
2019-01-15T12:36:53.626Z,4.65
2019-01-15T12:37:53.650Z,4.66
2019-01-15T12:38:53.599Z,4.63
2019-01-15T12:39:53.600Z,4.58
2019-01-15T12:40:53.577Z,4.63
2019-01-15T12:41:53.562Z,4.75
2019-01-15T12:42:53.571Z,4.80
2019-01-15T12:43:53.556Z,4.72
2019-01-15T12:44:53.537Z,4.72
2019-01-15T12:45:53.531Z,4.67
2019-01-15T12:46:53.513Z,4.78
2019-01-15T12:47:53.518Z,4.65
2019-01-15T12:48:53.489Z,4.63
2019-01-15T12:49:53.476Z,4.72
2019-01-15T12:50:53.472Z,4.66
2019-01-15T12:51:53.456Z,4.51
2019-01-15T12:52:53.476Z,4.59
2019-01-15T12:53:53.430Z,4.55
2019-01-15T12:54:53.421Z,4.54
2019-01-15T12:55:53.406Z,4.50
2019-01-15T12:56:53.408Z,4.55
2019-01-15T12:57:53.388Z,4.50
2019-01-15T12:58:53.394Z,4.51
2019-01-15T12:59:53.363Z,4.52
2019-01-15T13:00:53.353Z,4.48
2019-01-15T13:01:53.337Z,4.58
2019-01-15T13:02:53.330Z,4.50
2019-01-15T13:03:53.339Z,4.50
2019-01-15T13:04:53.312Z,4.42
2019-01-15T13:05:53.297Z,4.41
2019-01-15T13:06:53.285Z,4.42
2019-01-15T13:07:53.276Z,4.41
2019-01-15T13:08:53.281Z,4.47
2019-01-15T13:09:53.255Z,4.44
2019-01-15T13:10:53.249Z,4.42
2019-01-15T13:11:53.234Z,4.41
2019-01-15T13:12:53.223Z,4.47
2019-01-15T13:13:53.231Z,4.40
2019-01-15T13:14:53.202Z,4.40
2019-01-15T13:15:53.188Z,4.40
2019-01-15T13:16:53.176Z,4.42
2019-01-15T13:17:53.165Z,4.41